createdAt,value
2019-01-23T01:00:36.527Z,45.33
2019-01-23T01:05:38.548Z,41.93
2019-01-23T01:10:39.877Z,38.27
2019-01-23T01:15:41.189Z,43.13
2019-01-23T01:20:42.509Z,39.83
2019-01-23T01:25:43.812Z,37.43
2019-01-23T02:34:05.788Z,39.10
2019-01-23T02:39:07.093Z,42.33
2019-01-23T02:44:08.436Z,35.97
2019-01-23T02:49:10.490Z,40.13
2019-01-23T02:54:11.830Z,36.47
2019-01-23T02:59:17.531Z,45.40
2019-01-23T04:01:15.527Z,32.37
2019-01-23T04:06:16.828Z,35.20
2019-01-23T04:11:18.133Z,40.53
2019-01-23T04:16:19.457Z,42.70
2019-01-23T04:21:20.760Z,42.20
2019-01-23T04:26:22.068Z,36.70
2019-01-23T05:34:46.180Z,32.97
2019-01-23T05:39:47.500Z,32.10
2019-01-23T05:44:48.786Z,32.47
2019-01-23T05:49:50.084Z,26.33
2019-01-23T05:54:51.359Z,33.23
2019-01-23T05:59:52.645Z,40.63
2019-01-23T07:01:58.257Z,56.77
2019-01-23T07:07:01.194Z,66.67
2019-01-23T07:12:02.584Z,59.03
2019-01-23T07:17:03.883Z,55.27
2019-01-23T07:22:05.197Z,58.07
2019-01-23T07:27:06.541Z,58.70
2019-01-23T08:35:29.189Z,61.53
2019-01-23T08:40:30.508Z,59.50
2019-01-23T08:45:31.837Z,64.10
2019-01-23T08:50:34.091Z,66.60
2019-01-23T08:55:36.125Z,54.70
2019-01-23T10:03:59.197Z,72.90
2019-01-23T10:09:00.478Z,62.80
2019-01-23T10:14:02.505Z,62.17
2019-01-23T10:19:03.801Z,75.53
2019-01-23T10:24:05.090Z,66.90
2019-01-23T10:29:06.372Z,63.97
2019-01-23T11:31:11.058Z,54.50
2019-01-23T11:36:12.382Z,55.10
2019-01-23T11:41:13.684Z,59.10
2019-01-23T11:46:15.006Z,59.43
2019-01-23T11:51:16.308Z,52.13
2019-01-23T11:56:17.604Z,54.63
2019-01-23T13:04:42.806Z,43.07
2019-01-23T13:09:44.097Z,40.03
2019-01-23T13:14:45.375Z,39.33
2019-01-23T13:19:46.664Z,42.80
2019-01-23T13:24:47.977Z,48.23
2019-01-23T13:29:49.264Z,40.73
2019-01-23T14:31:52.033Z,43.60
2019-01-23T14:36:54.046Z,47.77
2019-01-23T14:41:55.312Z,43.83
2019-01-23T14:46:56.593Z,41.07
2019-01-23T14:51:57.889Z,39.90
2019-01-23T14:56:59.156Z,42.10
2019-01-23T16:05:22.317Z,36.27
2019-01-23T16:10:24.394Z,31.07
2019-01-23T16:15:25.742Z,40.43
2019-01-23T16:20:27.795Z,37.27
2019-01-23T16:25:29.103Z,36.37
2019-01-23T16:30:32.148Z,33.50
2019-01-23T16:35:38.546Z,37.27
2019-01-23T16:40:34.829Z,29.23
2019-01-23T16:45:36.236Z,31.60
2019-01-23T16:50:37.510Z,36.03
2019-01-23T16:55:38.803Z,35.80
2019-01-23T17:00:40.864Z,32.57
2019-01-23T17:05:42.177Z,32.03
2019-01-23T17:10:43.457Z,30.10
2019-01-23T17:15:44.769Z,35.80
2019-01-23T17:20:46.882Z,37.53
2019-01-23T17:25:48.188Z,33.37
2019-01-23T17:30:49.516Z,32.57
2019-01-23T17:35:50.868Z,36.33
2019-01-23T17:40:52.177Z,33.00
2019-01-23T17:45:57.864Z,37.83
2019-01-23T17:50:59.192Z,38.13
2019-01-23T17:56:00.512Z,38.43
2019-01-23T18:01:02.644Z,38.47
2019-01-23T18:06:03.926Z,37.10
2019-01-23T18:11:05.246Z,51.30
2019-01-23T18:16:07.454Z,36.13
2019-01-23T18:21:08.792Z,36.67
2019-01-23T18:26:10.130Z,40.83
2019-01-23T18:31:12.430Z,37.87
2019-01-23T18:36:19.370Z,40.17
2019-01-23T18:41:32.751Z,38.77
2019-01-23T18:52:09.466Z,51.80
2019-01-23T19:02:43.378Z,47.78
2019-01-23T19:07:44.701Z,40.03
2019-01-23T19:12:51.698Z,42.07
2019-01-23T19:17:56.458Z,40.57
2019-01-23T19:23:02.007Z,44.23
2019-01-23T19:28:03.512Z,40.63
2019-01-23T19:33:13.313Z,45.50
2019-01-23T19:38:09.269Z,45.87
2019-01-23T19:43:10.981Z,42.60
2019-01-23T19:48:12.452Z,50.67
2019-01-23T19:53:13.732Z,49.83
2019-01-23T19:58:15.035Z,42.83
2019-01-23T20:03:20.343Z,51.13
2019-01-23T20:08:17.818Z,43.80
2019-01-23T20:13:23.664Z,50.37
2019-01-23T20:18:25.104Z,41.80
2019-01-23T20:23:26.484Z,46.57
2019-01-23T20:28:27.853Z,46.70
2019-01-23T20:33:29.191Z,48.57
2019-01-23T20:38:30.529Z,48.13
2019-01-23T20:43:33.152Z,44.60
2019-01-23T20:48:34.472Z,47.17
2019-01-23T20:53:35.815Z,46.50
2019-01-23T20:58:37.181Z,39.70
2019-01-23T21:03:38.505Z,43.20
2019-01-23T21:08:39.810Z,45.50
2019-01-23T21:13:43.802Z,47.30
2019-01-23T21:18:47.267Z,37.70
2019-01-23T21:23:49.726Z,45.60
2019-01-23T21:28:59.509Z,51.83
2019-01-23T21:34:00.947Z,46.03
2019-01-23T21:39:02.331Z,48.23
2019-01-23T21:44:03.652Z,40.67
2019-01-23T21:49:07.107Z,40.30
2019-01-23T21:54:08.539Z,41.93
2019-01-23T21:59:09.907Z,47.20
2019-01-23T22:04:20.152Z,46.27
2019-01-23T22:09:21.469Z,46.90
2019-01-23T22:14:22.888Z,44.00
2019-01-23T22:19:48.328Z,43.60
2019-01-23T22:24:53.069Z,48.87
2019-01-23T22:30:13.820Z,51.13
2019-01-23T22:35:15.360Z,42.57
2019-01-23T22:40:16.660Z,48.67
2019-01-23T22:45:17.977Z,45.63
2019-01-23T22:50:20.963Z,43.30
2019-01-23T22:55:23.029Z,43.53
2019-01-23T23:00:30.262Z,47.63
2019-01-23T23:30:56.253Z,47.83
2019-01-23T23:35:57.571Z,43.27
2019-01-23T23:40:58.885Z,45.70
2019-01-23T23:46:00.199Z,44.87
2019-01-23T23:51:01.549Z,46.90
2019-01-23T23:56:02.855Z,46.50
